sensor_id;sensor_type;location;lat;lon;timestamp;P1;durP1;ratioP1;P2;durP2;ratioP2
2766;SDS011;1391;46.742;11.636;2022-09-23T00:01:07;3.13;;;1.40;;
2766;SDS011;1391;46.742;11.636;2022-09-23T00:03:36;2.13;;;1.37;;
2766;SDS011;1391;46.742;11.636;2022-09-23T00:06:13;2.03;;;1.47;;
2766;SDS011;1391;46.742;11.636;2022-09-23T00:08:43;1.83;;;1.37;;
2766;SDS011;1391;46.742;11.636;2022-09-23T00:11:12;2.00;;;1.67;;
2766;SDS011;1391;46.742;11.636;2022-09-23T00:13:42;3.53;;;1.40;;
2766;SDS011;1391;46.742;11.636;2022-09-23T00:16:15;1.30;;;1.20;;
2766;SDS011;1391;46.742;11.636;2022-09-23T00:18:46;2.80;;;1.60;;
2766;SDS011;1391;46.742;11.636;2022-09-23T00:21:16;1.97;;;1.50;;
2766;SDS011;1391;46.742;11.636;2022-09-23T00:23:45;1.70;;;1.50;;
2766;SDS011;1391;46.742;11.636;2022-09-23T00:26:14;1.50;;;1.37;;
2766;SDS011;1391;46.742;11.636;2022-09-23T00:28:43;2.17;;;1.43;;
2766;SDS011;1391;46.742;11.636;2022-09-23T00:31:11;1.77;;;1.63;;
2766;SDS011;1391;46.742;11.636;2022-09-23T00:33:41;2.87;;;1.37;;
2766;SDS011;1391;46.742;11.636;2022-09-23T00:36:11;1.73;;;1.50;;
2766;SDS011;1391;46.742;11.636;2022-09-23T00:38:44;1.80;;;1.50;;
2766;SDS011;1391;46.742;11.636;2022-09-23T00:41:11;1.40;;;1.30;;
2766;SDS011;1391;46.742;11.636;2022-09-23T00:43:41;2.13;;;1.37;;
2766;SDS011;1391;46.742;11.636;2022-09-23T00:46:11;3.63;;;1.70;;
2766;SDS011;1391;46.742;11.636;2022-09-23T00:48:42;2.77;;;1.50;;
2766;SDS011;1391;46.742;11.636;2022-09-23T00:51:11;1.23;;;1.13;;
2766;SDS011;1391;46.742;11.636;2022-09-23T00:53:44;2.67;;;1.57;;
2766;SDS011;1391;46.742;11.636;2022-09-23T00:56:14;3.63;;;1.60;;
2766;SDS011;1391;46.742;11.636;2022-09-23T00:58:42;2.67;;;1.50;;
2766;SDS011;1391;46.742;11.636;2022-09-23T01:01:12;3.27;;;1.50;;
2766;SDS011;1391;46.742;11.636;2022-09-23T01:03:40;1.50;;;1.40;;
2766;SDS011;1391;46.742;11.636;2022-09-23T01:06:10;1.77;;;1.30;;
2766;SDS011;1391;46.742;11.636;2022-09-23T01:08:38;2.23;;;1.50;;
2766;SDS011;1391;46.742;11.636;2022-09-23T01:11:11;3.60;;;1.70;;
2766;SDS011;1391;46.742;11.636;2022-09-23T01:14:00;3.03;;;1.70;;
2766;SDS011;1391;46.742;11.636;2022-09-23T01:16:42;2.17;;;1.67;;
2766;SDS011;1391;46.742;11.636;2022-09-23T01:19:21;2.73;;;1.70;;
2766;SDS011;1391;46.742;11.636;2022-09-23T01:22:20;3.67;;;2.07;;
2766;SDS011;1391;46.742;11.636;2022-09-23T01:25:05;4.07;;;2.40;;
2766;SDS011;1391;46.742;11.636;2022-09-23T01:27:58;4.70;;;1.67;;
2766;SDS011;1391;46.742;11.636;2022-09-23T01:30:47;2.43;;;1.60;;
2766;SDS011;1391;46.742;11.636;2022-09-23T01:33:21;4.37;;;2.00;;
2766;SDS011;1391;46.742;11.636;2022-09-23T01:35:59;1.47;;;1.37;;
2766;SDS011;1391;46.742;11.636;2022-09-23T01:38:36;2.67;;;1.50;;
2766;SDS011;1391;46.742;11.636;2022-09-23T01:41:22;1.73;;;1.50;;
2766;SDS011;1391;46.742;11.636;2022-09-23T01:44:14;4.00;;;1.67;;
2766;SDS011;1391;46.742;11.636;2022-09-23T01:46:49;2.50;;;1.50;;
2766;SDS011;1391;46.742;11.636;2022-09-23T01:49:21;1.50;;;1.40;;
2766;SDS011;1391;46.742;11.636;2022-09-23T01:51:55;1.73;;;1.53;;
2766;SDS011;1391;46.742;11.636;2022-09-23T01:54:31;2.07;;;1.50;;
2766;SDS011;1391;46.742;11.636;2022-09-23T01:57:04;3.13;;;1.97;;
2766;SDS011;1391;46.742;11.636;2022-09-23T01:59:38;2.40;;;1.70;;
2766;SDS011;1391;46.742;11.636;2022-09-23T02:02:12;4.13;;;1.60;;
2766;SDS011;1391;46.742;11.636;2022-09-23T02:04:44;2.80;;;1.60;;
2766;SDS011;1391;46.742;11.636;2022-09-23T02:07:16;1.93;;;1.70;;
2766;SDS011;1391;46.742;11.636;2022-09-23T02:09:49;5.77;;;2.63;;
2766;SDS011;1391;46.742;11.636;2022-09-23T02:12:21;4.67;;;2.77;;
2766;SDS011;1391;46.742;11.636;2022-09-23T02:14:55;2.53;;;2.03;;
2766;SDS011;1391;46.742;11.636;2022-09-23T02:17:29;5.17;;;2.73;;
2766;SDS011;1391;46.742;11.636;2022-09-23T02:20:04;2.67;;;1.60;;
2766;SDS011;1391;46.742;11.636;2022-09-23T02:22:34;2.00;;;1.73;;
2766;SDS011;1391;46.742;11.636;2022-09-23T02:25:06;4.70;;;1.70;;
2766;SDS011;1391;46.742;11.636;2022-09-23T02:27:38;2.63;;;1.60;;
2766;SDS011;1391;46.742;11.636;2022-09-23T02:30:12;2.70;;;1.70;;
2766;SDS011;1391;46.742;11.636;2022-09-23T02:32:47;2.67;;;1.80;;
2766;SDS011;1391;46.742;11.636;2022-09-23T02:35:22;2.90;;;2.03;;
2766;SDS011;1391;46.742;11.636;2022-09-23T02:37:59;4.17;;;1.80;;
2766;SDS011;1391;46.742;11.636;2022-09-23T02:40:38;6.50;;;2.03;;
2766;SDS011;1391;46.742;11.636;2022-09-23T02:43:16;4.10;;;1.97;;
2766;SDS011;1391;46.742;11.636;2022-09-23T02:45:49;2.00;;;1.50;;
2766;SDS011;1391;46.742;11.636;2022-09-23T02:48:19;2.60;;;1.57;;
2766;SDS011;1391;46.742;11.636;2022-09-23T02:50:51;1.93;;;1.60;;
2766;SDS011;1391;46.742;11.636;2022-09-23T02:53:18;2.47;;;1.70;;
2766;SDS011;1391;46.742;11.636;2022-09-23T02:55:47;2.10;;;1.50;;
2766;SDS011;1391;46.742;11.636;2022-09-23T02:58:15;2.53;;;1.60;;
2766;SDS011;1391;46.742;11.636;2022-09-23T03:00:46;2.23;;;1.30;;
2766;SDS011;1391;46.742;11.636;2022-09-23T03:03:25;3.53;;;1.40;;
2766;SDS011;1391;46.742;11.636;2022-09-23T03:06:05;5.40;;;1.40;;
2766;SDS011;1391;46.742;11.636;2022-09-23T03:08:45;2.23;;;1.60;;
2766;SDS011;1391;46.742;11.636;2022-09-23T03:11:17;2.33;;;1.90;;
2766;SDS011;1391;46.742;11.636;2022-09-23T03:13:49;2.47;;;1.60;;
2766;SDS011;1391;46.742;11.636;2022-09-23T03:16:30;1.90;;;1.60;;
2766;SDS011;1391;46.742;11.636;2022-09-23T03:19:09;3.27;;;1.80;;
2766;SDS011;1391;46.742;11.636;2022-09-23T03:21:48;2.30;;;1.80;;
2766;SDS011;1391;46.742;11.636;2022-09-23T03:24:24;1.93;;;1.67;;
2766;SDS011;1391;46.742;11.636;2022-09-23T03:26:56;3.60;;;1.77;;
2766;SDS011;1391;46.742;11.636;2022-09-23T03:29:26;2.20;;;1.97;;
2766;SDS011;1391;46.742;11.636;2022-09-23T03:31:54;2.90;;;1.80;;
2766;SDS011;1391;46.742;11.636;2022-09-23T03:34:25;2.17;;;1.67;;
2766;SDS011;1391;46.742;11.636;2022-09-23T03:36:57;2.37;;;1.70;;
2766;SDS011;1391;46.742;11.636;2022-09-23T03:39:34;3.53;;;1.83;;
2766;SDS011;1391;46.742;11.636;2022-09-23T03:42:06;1.83;;;1.57;;
2766;SDS011;1391;46.742;11.636;2022-09-23T03:44:41;2.37;;;2.00;;
2766;SDS011;1391;46.742;11.636;2022-09-23T03:47:10;3.20;;;1.93;;
2766;SDS011;1391;46.742;11.636;2022-09-23T03:49:40;2.77;;;1.80;;
2766;SDS011;1391;46.742;11.636;2022-09-23T03:52:11;6.07;;;1.70;;
2766;SDS011;1391;46.742;11.636;2022-09-23T03:54:38;2.30;;;1.80;;
2766;SDS011;1391;46.742;11.636;2022-09-23T03:57:05;2.00;;;1.70;;
2766;SDS011;1391;46.742;11.636;2022-09-23T03:59:32;2.80;;;1.80;;
2766;SDS011;1391;46.742;11.636;2022-09-23T04:01:59;6.30;;;1.80;;
2766;SDS011;1391;46.742;11.636;2022-09-23T04:04:27;1.90;;;1.80;;
2766;SDS011;1391;46.742;11.636;2022-09-23T04:06:59;2.27;;;1.70;;
2766;SDS011;1391;46.742;11.636;2022-09-23T04:09:27;2.13;;;1.77;;
2766;SDS011;1391;46.742;11.636;2022-09-23T04:11:55;3.80;;;1.93;;
2766;SDS011;1391;46.742;11.636;2022-09-23T04:14:22;3.33;;;1.80;;
2766;SDS011;1391;46.742;11.636;2022-09-23T04:16:50;2.87;;;1.90;;
2766;SDS011;1391;46.742;11.636;2022-09-23T04:19:17;2.93;;;2.20;;
2766;SDS011;1391;46.742;11.636;2022-09-23T04:21:44;5.00;;;2.43;;
2766;SDS011;1391;46.742;11.636;2022-09-23T04:24:13;4.43;;;2.20;;
2766;SDS011;1391;46.742;11.636;2022-09-23T04:26:42;5.97;;;2.30;;
2766;SDS011;1391;46.742;11.636;2022-09-23T04:29:09;5.10;;;2.00;;
2766;SDS011;1391;46.742;11.636;2022-09-23T04:31:37;5.57;;;2.40;;
2766;SDS011;1391;46.742;11.636;2022-09-23T04:34:04;2.23;;;1.90;;
2766;SDS011;1391;46.742;11.636;2022-09-23T04:36:32;3.27;;;2.30;;
2766;SDS011;1391;46.742;11.636;2022-09-23T04:38:59;3.23;;;2.00;;
2766;SDS011;1391;46.742;11.636;2022-09-23T04:41:28;3.23;;;2.00;;
2766;SDS011;1391;46.742;11.636;2022-09-23T04:43:56;4.67;;;2.00;;
2766;SDS011;1391;46.742;11.636;2022-09-23T04:46:23;3.30;;;2.27;;
2766;SDS011;1391;46.742;11.636;2022-09-23T04:48:50;2.70;;;2.30;;
2766;SDS011;1391;46.742;11.636;2022-09-23T04:51:19;4.77;;;2.17;;
2766;SDS011;1391;46.742;11.636;2022-09-23T04:53:48;8.27;;;2.50;;
2766;SDS011;1391;46.742;11.636;2022-09-23T04:56:18;6.10;;;2.30;;
2766;SDS011;1391;46.742;11.636;2022-09-23T04:58:49;2.40;;;2.00;;
2766;SDS011;1391;46.742;11.636;2022-09-23T05:01:17;2.33;;;2.10;;
2766;SDS011;1391;46.742;11.636;2022-09-23T05:03:48;5.07;;;2.57;;
2766;SDS011;1391;46.742;11.636;2022-09-23T05:06:17;6.60;;;2.63;;
2766;SDS011;1391;46.742;11.636;2022-09-23T05:08:46;4.23;;;2.83;;
2766;SDS011;1391;46.742;11.636;2022-09-23T05:11:15;2.40;;;2.20;;
2766;SDS011;1391;46.742;11.636;2022-09-23T05:13:43;2.53;;;2.33;;
2766;SDS011;1391;46.742;11.636;2022-09-23T05:16:12;5.23;;;2.83;;
2766;SDS011;1391;46.742;11.636;2022-09-23T05:18:40;4.07;;;2.53;;
2766;SDS011;1391;46.742;11.636;2022-09-23T05:21:09;4.70;;;2.70;;
2766;SDS011;1391;46.742;11.636;2022-09-23T05:23:38;2.73;;;2.50;;
2766;SDS011;1391;46.742;11.636;2022-09-23T05:26:07;6.90;;;2.67;;
2766;SDS011;1391;46.742;11.636;2022-09-23T05:28:37;3.07;;;2.50;;
2766;SDS011;1391;46.742;11.636;2022-09-23T05:31:06;6.77;;;3.00;;
2766;SDS011;1391;46.742;11.636;2022-09-23T05:33:37;3.77;;;2.80;;
2766;SDS011;1391;46.742;11.636;2022-09-23T05:36:05;6.23;;;2.57;;
2766;SDS011;1391;46.742;11.636;2022-09-23T05:38:33;2.80;;;2.43;;
2766;SDS011;1391;46.742;11.636;2022-09-23T05:41:02;3.83;;;2.53;;
2766;SDS011;1391;46.742;11.636;2022-09-23T05:43:32;4.93;;;2.10;;
2766;SDS011;1391;46.742;11.636;2022-09-23T05:46:01;3.33;;;2.33;;
2766;SDS011;1391;46.742;11.636;2022-09-23T05:48:29;2.80;;;2.20;;
2766;SDS011;1391;46.742;11.636;2022-09-23T05:50:58;3.43;;;2.37;;
2766;SDS011;1391;46.742;11.636;2022-09-23T05:53:27;3.80;;;2.50;;
2766;SDS011;1391;46.742;11.636;2022-09-23T05:55:55;3.43;;;2.13;;
2766;SDS011;1391;46.742;11.636;2022-09-23T05:58:23;4.33;;;2.20;;
2766;SDS011;1391;46.742;11.636;2022-09-23T06:00:51;2.40;;;1.80;;
2766;SDS011;1391;46.742;11.636;2022-09-23T06:03:21;5.53;;;2.37;;
2766;SDS011;1391;46.742;11.636;2022-09-23T06:05:51;2.87;;;2.00;;
2766;SDS011;1391;46.742;11.636;2022-09-23T06:08:20;5.90;;;2.63;;
2766;SDS011;1391;46.742;11.636;2022-09-23T06:10:48;4.13;;;2.50;;
2766;SDS011;1391;46.742;11.636;2022-09-23T06:13:16;3.90;;;2.47;;
2766;SDS011;1391;46.742;11.636;2022-09-23T06:15:43;4.13;;;2.67;;
2766;SDS011;1391;46.742;11.636;2022-09-23T06:18:11;2.90;;;2.20;;
2766;SDS011;1391;46.742;11.636;2022-09-23T06:20:38;2.93;;;2.20;;
2766;SDS011;1391;46.742;11.636;2022-09-23T06:23:06;2.40;;;2.10;;
2766;SDS011;1391;46.742;11.636;2022-09-23T06:25:36;4.77;;;2.37;;
2766;SDS011;1391;46.742;11.636;2022-09-23T06:28:04;4.23;;;2.70;;
2766;SDS011;1391;46.742;11.636;2022-09-23T06:30:36;2.53;;;2.07;;
2766;SDS011;1391;46.742;11.636;2022-09-23T06:33:04;3.80;;;2.27;;
2766;SDS011;1391;46.742;11.636;2022-09-23T06:35:31;4.87;;;2.63;;
2766;SDS011;1391;46.742;11.636;2022-09-23T06:38:01;3.37;;;2.20;;
2766;SDS011;1391;46.742;11.636;2022-09-23T06:40:29;3.57;;;2.60;;
2766;SDS011;1391;46.742;11.636;2022-09-23T06:42:58;5.90;;;2.60;;
2766;SDS011;1391;46.742;11.636;2022-09-23T06:45:27;3.97;;;2.17;;
2766;SDS011;1391;46.742;11.636;2022-09-23T06:47:55;3.60;;;2.97;;
2766;SDS011;1391;46.742;11.636;2022-09-23T06:50:23;2.97;;;2.63;;
2766;SDS011;1391;46.742;11.636;2022-09-23T06:52:53;7.67;;;3.17;;
2766;SDS011;1391;46.742;11.636;2022-09-23T06:55:22;6.10;;;2.97;;
2766;SDS011;1391;46.742;11.636;2022-09-23T06:57:52;5.80;;;2.70;;
2766;SDS011;1391;46.742;11.636;2022-09-23T07:00:20;8.93;;;3.17;;
2766;SDS011;1391;46.742;11.636;2022-09-23T07:02:48;8.43;;;3.57;;
2766;SDS011;1391;46.742;11.636;2022-09-23T07:05:15;8.20;;;3.17;;
2766;SDS011;1391;46.742;11.636;2022-09-23T07:07:42;6.90;;;3.10;;
2766;SDS011;1391;46.742;11.636;2022-09-23T07:10:10;18.53;;;4.00;;
2766;SDS011;1391;46.742;11.636;2022-09-23T07:12:37;14.43;;;3.00;;
2766;SDS011;1391;46.742;11.636;2022-09-23T07:15:05;8.10;;;3.00;;
2766;SDS011;1391;46.742;11.636;2022-09-23T07:17:35;4.23;;;2.30;;
2766;SDS011;1391;46.742;11.636;2022-09-23T07:20:02;4.73;;;2.37;;
2766;SDS011;1391;46.742;11.636;2022-09-23T07:22:30;7.80;;;2.40;;
2766;SDS011;1391;46.742;11.636;2022-09-23T07:24:57;7.73;;;2.20;;
2766;SDS011;1391;46.742;11.636;2022-09-23T07:27:25;4.33;;;2.57;;
2766;SDS011;1391;46.742;11.636;2022-09-23T07:29:53;5.03;;;2.80;;
2766;SDS011;1391;46.742;11.636;2022-09-23T07:32:21;7.43;;;2.77;;
2766;SDS011;1391;46.742;11.636;2022-09-23T07:34:50;8.37;;;2.77;;
2766;SDS011;1391;46.742;11.636;2022-09-23T07:37:17;4.63;;;2.70;;
2766;SDS011;1391;46.742;11.636;2022-09-23T07:39:45;5.83;;;2.40;;
2766;SDS011;1391;46.742;11.636;2022-09-23T07:42:12;4.30;;;2.70;;
2766;SDS011;1391;46.742;11.636;2022-09-23T07:44:39;9.67;;;2.50;;
2766;SDS011;1391;46.742;11.636;2022-09-23T07:47:12;13.90;;;2.83;;
2766;SDS011;1391;46.742;11.636;2022-09-23T07:49:39;7.27;;;2.30;;
2766;SDS011;1391;46.742;11.636;2022-09-23T07:52:08;12.80;;;3.17;;
2766;SDS011;1391;46.742;11.636;2022-09-23T07:54:35;5.60;;;2.60;;
2766;SDS011;1391;46.742;11.636;2022-09-23T07:57:03;12.33;;;2.40;;
2766;SDS011;1391;46.742;11.636;2022-09-23T07:59:30;3.60;;;2.47;;
2766;SDS011;1391;46.742;11.636;2022-09-23T08:01:58;7.30;;;2.80;;
2766;SDS011;1391;46.742;11.636;2022-09-23T08:04:27;7.70;;;2.63;;
2766;SDS011;1391;46.742;11.636;2022-09-23T08:06:57;7.83;;;3.27;;
2766;SDS011;1391;46.742;11.636;2022-09-23T08:09:29;7.20;;;2.60;;
2766;SDS011;1391;46.742;11.636;2022-09-23T08:11:58;8.10;;;2.10;;
2766;SDS011;1391;46.742;11.636;2022-09-23T08:14:25;8.00;;;2.50;;
2766;SDS011;1391;46.742;11.636;2022-09-23T08:16:53;11.70;;;2.70;;
2766;SDS011;1391;46.742;11.636;2022-09-23T08:19:20;5.60;;;2.63;;
2766;SDS011;1391;46.742;11.636;2022-09-23T08:21:48;13.50;;;2.20;;
2766;SDS011;1391;46.742;11.636;2022-09-23T08:24:16;6.93;;;1.63;;
2766;SDS011;1391;46.742;11.636;2022-09-23T08:26:47;7.67;;;2.27;;
2766;SDS011;1391;46.742;11.636;2022-09-23T08:29:15;5.80;;;2.33;;
2766;SDS011;1391;46.742;11.636;2022-09-23T08:31:43;6.70;;;2.37;;
2766;SDS011;1391;46.742;11.636;2022-09-23T08:34:11;4.00;;;2.13;;
2766;SDS011;1391;46.742;11.636;2022-09-23T08:36:39;6.90;;;2.73;;
2766;SDS011;1391;46.742;11.636;2022-09-23T08:39:06;2.20;;;1.80;;
2766;SDS011;1391;46.742;11.636;2022-09-23T08:41:37;5.63;;;2.20;;
2766;SDS011;1391;46.742;11.636;2022-09-23T08:44:12;4.80;;;1.80;;
2766;SDS011;1391;46.742;11.636;2022-09-23T08:46:47;4.50;;;1.50;;
2766;SDS011;1391;46.742;11.636;2022-09-23T08:49:22;6.70;;;1.60;;
2766;SDS011;1391;46.742;11.636;2022-09-23T08:51:55;2.53;;;1.80;;
2766;SDS011;1391;46.742;11.636;2022-09-23T08:54:25;2.33;;;1.70;;
2766;SDS011;1391;46.742;11.636;2022-09-23T08:56:56;3.60;;;1.50;;
2766;SDS011;1391;46.742;11.636;2022-09-23T08:59:29;3.00;;;1.90;;
2766;SDS011;1391;46.742;11.636;2022-09-23T09:02:10;6.43;;;1.70;;
2766;SDS011;1391;46.742;11.636;2022-09-23T09:04:44;2.97;;;1.60;;
2766;SDS011;1391;46.742;11.636;2022-09-23T09:07:17;2.10;;;1.60;;
2766;SDS011;1391;46.742;11.636;2022-09-23T09:09:49;2.07;;;1.67;;
2766;SDS011;1391;46.742;11.636;2022-09-23T09:12:24;6.17;;;1.90;;
2766;SDS011;1391;46.742;11.636;2022-09-23T09:15:00;2.00;;;1.73;;
2766;SDS011;1391;46.742;11.636;2022-09-23T09:17:34;3.50;;;1.80;;
2766;SDS011;1391;46.742;11.636;2022-09-23T09:20:06;3.57;;;1.73;;
2766;SDS011;1391;46.742;11.636;2022-09-23T09:22:49;2.43;;;1.77;;
2766;SDS011;1391;46.742;11.636;2022-09-23T09:25:22;8.07;;;2.27;;
2766;SDS011;1391;46.742;11.636;2022-09-23T09:28:03;7.23;;;2.10;;
2766;SDS011;1391;46.742;11.636;2022-09-23T09:30:45;9.37;;;2.20;;
2766;SDS011;1391;46.742;11.636;2022-09-23T09:33:18;3.13;;;1.70;;
2766;SDS011;1391;46.742;11.636;2022-09-23T09:35:57;7.07;;;1.93;;
2766;SDS011;1391;46.742;11.636;2022-09-23T09:38:35;6.90;;;2.07;;
2766;SDS011;1391;46.742;11.636;2022-09-23T09:41:08;3.73;;;1.87;;
2766;SDS011;1391;46.742;11.636;2022-09-23T09:43:42;3.77;;;1.90;;
2766;SDS011;1391;46.742;11.636;2022-09-23T09:49:21;3.63;;;2.30;;
2766;SDS011;1391;46.742;11.636;2022-09-23T09:52:11;3.67;;;2.17;;
2766;SDS011;1391;46.742;11.636;2022-09-23T09:54:44;6.50;;;2.40;;
2766;SDS011;1391;46.742;11.636;2022-09-23T09:57:17;2.53;;;1.83;;
2766;SDS011;1391;46.742;11.636;2022-09-23T09:59:54;5.40;;;2.10;;
2766;SDS011;1391;46.742;11.636;2022-09-23T10:02:25;4.30;;;2.10;;
2766;SDS011;1391;46.742;11.636;2022-09-23T10:04:57;5.00;;;2.13;;
2766;SDS011;1391;46.742;11.636;2022-09-23T10:07:27;4.30;;;2.60;;
2766;SDS011;1391;46.742;11.636;2022-09-23T10:09:56;3.93;;;2.43;;
2766;SDS011;1391;46.742;11.636;2022-09-23T10:12:42;5.00;;;2.17;;
2766;SDS011;1391;46.742;11.636;2022-09-23T10:15:25;3.60;;;2.50;;
2766;SDS011;1391;46.742;11.636;2022-09-23T10:17:58;2.53;;;2.23;;
2766;SDS011;1391;46.742;11.636;2022-09-23T10:20:30;2.93;;;2.20;;
2766;SDS011;1391;46.742;11.636;2022-09-23T10:23:05;3.67;;;2.17;;
2766;SDS011;1391;46.742;11.636;2022-09-23T10:25:34;2.77;;;2.27;;
2766;SDS011;1391;46.742;11.636;2022-09-23T10:31:13;3.00;;;2.70;;
2766;SDS011;1391;46.742;11.636;2022-09-23T10:33:47;3.20;;;2.40;;
2766;SDS011;1391;46.742;11.636;2022-09-23T10:36:17;4.23;;;3.07;;
2766;SDS011;1391;46.742;11.636;2022-09-23T10:38:44;4.40;;;2.20;;
2766;SDS011;1391;46.742;11.636;2022-09-23T10:41:22;3.37;;;2.30;;
2766;SDS011;1391;46.742;11.636;2022-09-23T10:44:25;5.30;;;2.57;;
2766;SDS011;1391;46.742;11.636;2022-09-23T10:47:23;3.47;;;2.30;;
2766;SDS011;1391;46.742;11.636;2022-09-23T10:50:05;2.27;;;2.00;;
2766;SDS011;1391;46.742;11.636;2022-09-23T10:52:45;2.33;;;2.13;;
2766;SDS011;1391;46.742;11.636;2022-09-23T10:55:37;2.63;;;1.83;;
2766;SDS011;1391;46.742;11.636;2022-09-23T10:58:23;2.53;;;1.90;;
2766;SDS011;1391;46.742;11.636;2022-09-23T11:01:42;4.47;;;2.00;;
2766;SDS011;1391;46.742;11.636;2022-09-23T11:07:20;2.70;;;1.77;;
2766;SDS011;1391;46.742;11.636;2022-09-23T11:10:12;1.87;;;1.70;;
2766;SDS011;1391;46.742;11.636;2022-09-23T11:13:03;15.43;;;2.47;;
2766;SDS011;1391;46.742;11.636;2022-09-23T11:15:41;2.27;;;2.00;;
2766;SDS011;1391;46.742;11.636;2022-09-23T11:18:20;5.43;;;2.20;;
2766;SDS011;1391;46.742;11.636;2022-09-23T11:21:08;7.30;;;2.40;;
2766;SDS011;1391;46.742;11.636;2022-09-23T11:24:03;9.00;;;2.40;;
2766;SDS011;1391;46.742;11.636;2022-09-23T11:27:06;19.83;;;3.10;;
2766;SDS011;1391;46.742;11.636;2022-09-23T11:32:42;3.97;;;1.73;;
2766;SDS011;1391;46.742;11.636;2022-09-23T11:35:40;5.13;;;1.73;;
2766;SDS011;1391;46.742;11.636;2022-09-23T11:38:14;18.37;;;2.67;;
2766;SDS011;1391;46.742;11.636;2022-09-23T11:40:53;4.87;;;2.00;;
2766;SDS011;1391;46.742;11.636;2022-09-23T11:43:25;4.90;;;1.70;;
2766;SDS011;1391;46.742;11.636;2022-09-23T11:45:55;5.50;;;1.77;;
2766;SDS011;1391;46.742;11.636;2022-09-23T11:48:28;5.03;;;1.87;;
2766;SDS011;1391;46.742;11.636;2022-09-23T11:51:00;5.00;;;1.83;;
2766;SDS011;1391;46.742;11.636;2022-09-23T11:53:36;4.00;;;1.73;;
2766;SDS011;1391;46.742;11.636;2022-09-23T11:56:15;9.63;;;1.70;;
2766;SDS011;1391;46.742;11.636;2022-09-23T11:59:00;7.17;;;1.97;;
2766;SDS011;1391;46.742;11.636;2022-09-23T12:01:36;5.90;;;2.00;;
2766;SDS011;1391;46.742;11.636;2022-09-23T12:04:10;8.40;;;1.87;;
2766;SDS011;1391;46.742;11.636;2022-09-23T12:06:48;6.50;;;1.73;;
2766;SDS011;1391;46.742;11.636;2022-09-23T12:09:26;3.17;;;1.80;;
2766;SDS011;1391;46.742;11.636;2022-09-23T12:12:02;30.07;;;2.93;;
2766;SDS011;1391;46.742;11.636;2022-09-23T12:14:51;5.53;;;1.90;;
2766;SDS011;1391;46.742;11.636;2022-09-23T12:17:44;8.57;;;2.10;;
2766;SDS011;1391;46.742;11.636;2022-09-23T12:23:34;4.17;;;1.57;;
2766;SDS011;1391;46.742;11.636;2022-09-23T12:26:16;8.33;;;1.80;;
2766;SDS011;1391;46.742;11.636;2022-09-23T12:28:49;1.90;;;1.50;;
2766;SDS011;1391;46.742;11.636;2022-09-23T12:31:20;7.03;;;1.97;;
2766;SDS011;1391;46.742;11.636;2022-09-23T12:33:55;7.43;;;1.93;;
2766;SDS011;1391;46.742;11.636;2022-09-23T12:36:25;7.10;;;1.60;;
2766;SDS011;1391;46.742;11.636;2022-09-23T12:39:00;4.10;;;1.77;;
2766;SDS011;1391;46.742;11.636;2022-09-23T12:41:30;2.67;;;1.63;;
2766;SDS011;1391;46.742;11.636;2022-09-23T12:44:34;10.80;;;2.33;;
2766;SDS011;1391;46.742;11.636;2022-09-23T12:56:18;6.97;;;1.83;;
2766;SDS011;1391;46.742;11.636;2022-09-23T12:58:58;3.67;;;1.70;;
2766;SDS011;1391;46.742;11.636;2022-09-23T13:01:34;1.93;;;1.30;;
2766;SDS011;1391;46.742;11.636;2022-09-23T13:04:02;7.33;;;1.60;;
2766;SDS011;1391;46.742;11.636;2022-09-23T13:06:52;4.47;;;1.83;;
2766;SDS011;1391;46.742;11.636;2022-09-23T13:09:24;1.53;;;1.23;;
2766;SDS011;1391;46.742;11.636;2022-09-23T13:11:56;5.60;;;1.37;;
2766;SDS011;1391;46.742;11.636;2022-09-23T13:14:27;6.10;;;1.73;;
2766;SDS011;1391;46.742;11.636;2022-09-23T13:16:59;9.40;;;1.80;;
2766;SDS011;1391;46.742;11.636;2022-09-23T13:19:43;5.17;;;1.50;;
2766;SDS011;1391;46.742;11.636;2022-09-23T13:22:11;4.93;;;1.50;;
2766;SDS011;1391;46.742;11.636;2022-09-23T13:24:42;8.67;;;1.43;;
2766;SDS011;1391;46.742;11.636;2022-09-23T13:27:14;3.30;;;1.67;;
2766;SDS011;1391;46.742;11.636;2022-09-23T13:29:54;3.30;;;1.30;;
2766;SDS011;1391;46.742;11.636;2022-09-23T13:32:28;3.93;;;1.43;;
2766;SDS011;1391;46.742;11.636;2022-09-23T13:34:59;5.43;;;1.50;;
2766;SDS011;1391;46.742;11.636;2022-09-23T13:37:30;2.50;;;1.30;;
2766;SDS011;1391;46.742;11.636;2022-09-23T13:40:16;2.90;;;1.70;;
2766;SDS011;1391;46.742;11.636;2022-09-23T13:42:48;4.53;;;1.60;;
2766;SDS011;1391;46.742;11.636;2022-09-23T13:45:22;1.63;;;1.40;;
2766;SDS011;1391;46.742;11.636;2022-09-23T13:47:53;2.87;;;1.67;;
2766;SDS011;1391;46.742;11.636;2022-09-23T13:50:25;3.47;;;1.50;;
2766;SDS011;1391;46.742;11.636;2022-09-23T13:52:54;4.03;;;1.50;;
2766;SDS011;1391;46.742;11.636;2022-09-23T13:55:25;2.23;;;1.23;;
2766;SDS011;1391;46.742;11.636;2022-09-23T13:58:00;2.20;;;1.03;;
2766;SDS011;1391;46.742;11.636;2022-09-23T14:00:33;1.43;;;1.33;;
2766;SDS011;1391;46.742;11.636;2022-09-23T14:03:19;2.73;;;1.60;;
2766;SDS011;1391;46.742;11.636;2022-09-23T14:05:56;5.93;;;1.40;;
2766;SDS011;1391;46.742;11.636;2022-09-23T14:08:26;3.43;;;1.47;;
2766;SDS011;1391;46.742;11.636;2022-09-23T14:10:55;1.90;;;1.30;;
2766;SDS011;1391;46.742;11.636;2022-09-23T14:13:23;2.70;;;1.20;;
2766;SDS011;1391;46.742;11.636;2022-09-23T14:15:53;3.07;;;1.27;;
2766;SDS011;1391;46.742;11.636;2022-09-23T14:18:32;3.73;;;1.70;;
2766;SDS011;1391;46.742;11.636;2022-09-23T14:21:03;2.30;;;1.30;;
2766;SDS011;1391;46.742;11.636;2022-09-23T14:23:31;3.47;;;1.37;;
2766;SDS011;1391;46.742;11.636;2022-09-23T14:25:58;2.97;;;1.40;;
2766;SDS011;1391;46.742;11.636;2022-09-23T14:28:27;4.37;;;1.33;;
2766;SDS011;1391;46.742;11.636;2022-09-23T14:30:55;6.17;;;1.47;;
2766;SDS011;1391;46.742;11.636;2022-09-23T14:33:27;3.33;;;1.50;;
2766;SDS011;1391;46.742;11.636;2022-09-23T14:36:00;2.97;;;1.60;;
2766;SDS011;1391;46.742;11.636;2022-09-23T14:38:41;5.63;;;1.40;;
2766;SDS011;1391;46.742;11.636;2022-09-23T14:41:17;2.70;;;1.40;;
2766;SDS011;1391;46.742;11.636;2022-09-23T14:43:52;1.80;;;1.30;;
2766;SDS011;1391;46.742;11.636;2022-09-23T14:46:22;4.30;;;1.40;;
2766;SDS011;1391;46.742;11.636;2022-09-23T14:48:55;4.67;;;1.30;;
2766;SDS011;1391;46.742;11.636;2022-09-23T14:51:28;2.17;;;1.50;;
2766;SDS011;1391;46.742;11.636;2022-09-23T14:56:57;1.57;;;1.20;;
2766;SDS011;1391;46.742;11.636;2022-09-23T14:59:26;6.70;;;1.73;;
2766;SDS011;1391;46.742;11.636;2022-09-23T15:01:58;6.40;;;1.53;;
2766;SDS011;1391;46.742;11.636;2022-09-23T15:04:28;2.40;;;1.33;;
2766;SDS011;1391;46.742;11.636;2022-09-23T15:07:03;5.00;;;1.43;;
2766;SDS011;1391;46.742;11.636;2022-09-23T15:09:34;2.50;;;1.30;;
2766;SDS011;1391;46.742;11.636;2022-09-23T15:12:05;3.40;;;1.60;;
2766;SDS011;1391;46.742;11.636;2022-09-23T15:14:37;3.03;;;1.80;;
2766;SDS011;1391;46.742;11.636;2022-09-23T15:17:12;6.73;;;2.30;;
2766;SDS011;1391;46.742;11.636;2022-09-23T15:19:53;8.67;;;4.07;;
2766;SDS011;1391;46.742;11.636;2022-09-23T15:22:23;6.17;;;3.50;;
2766;SDS011;1391;46.742;11.636;2022-09-23T15:24:52;6.93;;;2.20;;
2766;SDS011;1391;46.742;11.636;2022-09-23T15:27:27;6.17;;;1.77;;
2766;SDS011;1391;46.742;11.636;2022-09-23T15:30:01;2.13;;;1.70;;
2766;SDS011;1391;46.742;11.636;2022-09-23T15:32:40;2.67;;;1.50;;
2766;SDS011;1391;46.742;11.636;2022-09-23T15:35:11;2.47;;;2.00;;
2766;SDS011;1391;46.742;11.636;2022-09-23T15:37:40;5.50;;;1.60;;
2766;SDS011;1391;46.742;11.636;2022-09-23T15:40:12;1.80;;;1.43;;
2766;SDS011;1391;46.742;11.636;2022-09-23T15:42:45;4.20;;;1.40;;
2766;SDS011;1391;46.742;11.636;2022-09-23T15:45:16;2.10;;;1.23;;
2766;SDS011;1391;46.742;11.636;2022-09-23T15:47:47;7.43;;;1.90;;
2766;SDS011;1391;46.742;11.636;2022-09-23T15:50:19;2.20;;;1.90;;
2766;SDS011;1391;46.742;11.636;2022-09-23T15:52:46;2.67;;;1.73;;
2766;SDS011;1391;46.742;11.636;2022-09-23T15:55:14;4.70;;;2.30;;
2766;SDS011;1391;46.742;11.636;2022-09-23T15:57:43;2.93;;;1.90;;
2766;SDS011;1391;46.742;11.636;2022-09-23T16:00:10;5.40;;;2.90;;
2766;SDS011;1391;46.742;11.636;2022-09-23T16:02:40;5.00;;;2.90;;